National Weather Service Raw Text Product

Displaying AFOS PIL: TAFALO Received: 2018-01-12 03:33 UTC


719 
FTUS43 KDMX 120333 AAA
TAFALO
TAF AMD
KALO 120333Z 1204/1224 32016G24KT 6SM BLSN BKN020
     FM120600 32018G26KT P6SM SCT025
     FM120900 33018KT P6SM SCT070
     FM121400 34012KT P6SM SKC=